Holloman Air Force Base
KHMN : now visible

Airfield :











YOU CAN JOIN US ON...

 
LOGIN :

Register | Disclaimer

   EN    FR    IT 

 









Legend :    VFR   Marginal VFR   IFR   Intensive IFR   Very Intensive IFR
Visi :
Ceiling :
>= 8 km
>= 3000ft
5 to 8 km
1000 to 3000 ft
1500m to 5 km
500 to 1000 ft
800 to 1500m
200 to 500 ft
< 800m
< 200 ft
Symbols :   Thunderstorms  Fog  Heavy snow  Heavy precipitations  Wind > 20 kt






- Airport Elevation : 4093 ft


KHMN - Holloman Air Force Base

CURRENT METAR :
  • 250758Z AUTO 05003KT 10SM CLR 03/M02 A3004 RMK AO2 SLP148 T00301019 $

EXPIRED METARs :
  • 250658Z AUTO 30003KT 10SM CLR 04/M02 A3005 RMK AO2 SLP152 T00381018 401601023 $
  • 250558Z AUTO 30005KT 10SM CLR 04/M02 A3005 RMK AO2 SLPNO T00361020 10147 20036 52008 $

TAF TAF KHMN
Valid from the 24 at 17:00 until the 25 at 15:00 UTC


241700Z 2417/2515 VRB06KT 9999 FEW250 QNH3011INS TX16/2422Z TNM01/2514Z



MET'MAP, your aeronautical weather chart ! - Copyright ORBIFLY December 2007 - Disclaimer

ORBIFLY MET'MAP TEAM :

Programming & Development : Alexandra Zaïnal
Concept & original design : Baudouin d'Aumeries
Assistance for programming : Marc-Olivier Méhu
Technical & hardware support : Manuel Goepfert

Contact : metmap@orbifly.com




SOURCES & CREDITS :

   NOAA       Earth
Advisory